createdAt,value
2018-12-06T00:00:27.898Z,16.10
2018-12-06T00:02:56.993Z,14.70
2018-12-06T00:05:25.256Z,14.30
2018-12-06T00:08:17.704Z,13.97
2018-12-06T00:10:46.024Z,12.23
2018-12-06T00:13:14.357Z,15.77
2018-12-06T00:15:42.644Z,12.87
2018-12-06T00:18:10.956Z,16.23
2018-12-06T00:20:39.229Z,15.27
2018-12-06T00:23:07.582Z,16.37
2018-12-06T00:25:35.828Z,15.53
2018-12-06T00:28:04.518Z,14.63
2018-12-06T00:30:38.387Z,12.90
2018-12-06T00:33:06.733Z,15.23
2018-12-06T00:35:36.155Z,16.03
2018-12-06T00:38:05.215Z,16.50
2018-12-06T00:40:33.605Z,16.57
2018-12-06T00:43:01.876Z,13.20
2018-12-06T00:45:30.195Z,15.50
2018-12-06T00:47:58.525Z,15.23
2018-12-06T00:50:26.807Z,16.00
2018-12-06T00:52:55.185Z,15.37
2018-12-06T00:55:23.470Z,14.47
2018-12-06T00:57:51.718Z,17.30
2018-12-06T01:00:20.016Z,16.80
2018-12-06T01:02:48.288Z,15.00
2018-12-06T01:05:16.587Z,14.20
2018-12-06T01:07:44.851Z,15.83
2018-12-06T01:12:55.110Z,15.27
2018-12-06T01:15:23.497Z,18.70
2018-12-06T01:17:51.852Z,15.57
2018-12-06T01:23:01.740Z,18.90
2018-12-06T01:25:29.997Z,20.67
2018-12-06T01:27:58.288Z,21.40
2018-12-06T01:30:26.577Z,16.47
2018-12-06T01:32:54.860Z,18.43
2018-12-06T01:35:23.123Z,18.50
2018-12-06T01:37:51.400Z,16.03
2018-12-06T01:40:19.677Z,16.50
2018-12-06T01:42:47.945Z,17.93
2018-12-06T01:45:16.348Z,16.83
2018-12-06T01:47:44.610Z,18.17
2018-12-06T01:50:12.956Z,17.93
2018-12-06T01:52:41.270Z,16.47
2018-12-06T01:55:09.641Z,16.23
2018-12-06T01:57:37.911Z,16.20
2018-12-06T02:00:07.361Z,13.93
2018-12-06T02:02:35.636Z,17.87
2018-12-06T02:05:04.603Z,18.20
2018-12-06T02:07:32.961Z,20.20
2018-12-06T02:10:01.302Z,21.97
2018-12-06T02:12:29.724Z,18.80
2018-12-06T02:14:58.122Z,18.50
2018-12-06T02:17:26.502Z,19.47
2018-12-06T02:19:54.865Z,17.20
2018-12-06T02:22:23.157Z,19.40
2018-12-06T02:24:51.431Z,18.48
2018-12-06T02:27:19.722Z,18.97
2018-12-06T02:29:53.870Z,18.77
2018-12-06T02:32:22.174Z,20.70
2018-12-06T02:34:50.447Z,16.67
2018-12-06T02:37:18.720Z,20.97
2018-12-06T02:39:47.131Z,17.60
2018-12-06T02:42:15.401Z,17.90
2018-12-06T02:44:43.691Z,19.80
2018-12-06T02:47:11.981Z,17.00
2018-12-06T02:49:40.254Z,17.40
2018-12-06T02:52:08.535Z,15.60
2018-12-06T02:54:36.805Z,17.13
2018-12-06T02:57:05.080Z,16.83
2018-12-06T02:59:33.443Z,20.52
2018-12-06T03:02:01.710Z,21.37
2018-12-06T03:04:30.018Z,17.27
2018-12-06T03:06:58.292Z,19.17
2018-12-06T03:09:26.555Z,19.40
2018-12-06T03:11:54.843Z,20.27
2018-12-06T03:14:23.112Z,21.20
2018-12-06T03:16:51.400Z,17.90
2018-12-06T03:19:19.671Z,19.20
2018-12-06T03:21:47.938Z,20.30
2018-12-06T03:24:16.221Z,19.80
2018-12-06T03:26:44.502Z,22.47
2018-12-06T03:29:12.775Z,21.20
2018-12-06T03:31:41.041Z,21.60
2018-12-06T03:34:09.326Z,24.45
2018-12-06T03:36:37.586Z,24.00
2018-12-06T03:39:06.986Z,20.47
2018-12-06T03:41:35.493Z,21.30
2018-12-06T03:44:03.892Z,23.83
2018-12-06T03:46:32.157Z,20.70
2018-12-06T03:49:00.533Z,21.97
2018-12-06T03:51:28.832Z,19.70
2018-12-06T03:53:57.120Z,23.87
2018-12-06T03:56:25.394Z,18.40
2018-12-06T03:58:53.727Z,21.43
2018-12-06T04:01:22.019Z,22.60
2018-12-06T04:03:50.359Z,17.57
2018-12-06T04:06:18.642Z,19.77
2018-12-06T04:08:46.929Z,26.37
2018-12-06T04:11:15.198Z,22.37
2018-12-06T04:13:43.591Z,18.20
2018-12-06T04:16:11.845Z,17.30
2018-12-06T04:18:40.131Z,21.33
2018-12-06T04:21:08.395Z,19.10
2018-12-06T04:23:36.694Z,21.03
2018-12-06T04:26:05.069Z,18.37
2018-12-06T04:28:33.340Z,18.63
2018-12-06T04:31:01.617Z,16.87
2018-12-06T04:33:29.893Z,22.10
2018-12-06T04:35:58.151Z,19.30
2018-12-06T04:38:26.420Z,19.20
2018-12-06T04:40:54.733Z,22.27
2018-12-06T04:43:23.116Z,21.37
2018-12-06T04:45:51.391Z,24.20
2018-12-06T04:48:22.170Z,19.35
2018-12-06T04:50:49.966Z,21.37
2018-12-06T04:53:18.236Z,22.40
2018-12-06T04:55:46.632Z,23.40
2018-12-06T04:58:14.909Z,25.50
2018-12-06T05:00:43.182Z,26.03
2018-12-06T05:03:11.461Z,26.47
2018-12-06T05:05:39.725Z,22.37
2018-12-06T05:08:08.058Z,26.43
2018-12-06T05:10:36.344Z,25.20
2018-12-06T05:13:04.601Z,21.77
2018-12-06T05:15:32.872Z,23.30
2018-12-06T05:18:01.228Z,27.20
2018-12-06T05:20:29.480Z,27.83
2018-12-06T05:22:57.745Z,29.17
2018-12-06T05:25:26.048Z,24.53
2018-12-06T05:27:54.314Z,23.57
2018-12-06T05:30:22.639Z,27.67
2018-12-06T05:32:51.090Z,32.30
2018-12-06T05:35:19.362Z,24.67
2018-12-06T05:37:47.634Z,22.97
2018-12-06T05:40:15.873Z,25.80
2018-12-06T05:42:44.121Z,39.73
2018-12-06T05:45:12.388Z,25.23
2018-12-06T05:47:40.765Z,30.00
2018-12-06T05:50:09.418Z,27.37
2018-12-06T05:52:37.705Z,22.50
2018-12-06T05:55:06.329Z,25.00
2018-12-06T05:57:34.674Z,37.60
2018-12-06T06:00:03.232Z,34.30
2018-12-06T06:02:31.556Z,34.60
2018-12-06T06:05:00.009Z,24.87
2018-12-06T06:07:28.264Z,25.00
2018-12-06T06:09:56.648Z,27.97
2018-12-06T06:12:25.056Z,20.90
2018-12-06T06:14:53.293Z,25.13
2018-12-06T06:17:21.601Z,31.17
2018-12-06T06:19:49.882Z,25.80
2018-12-06T06:22:18.155Z,23.10
2018-12-06T06:24:46.425Z,24.30
2018-12-06T06:27:14.672Z,25.93
2018-12-06T06:29:42.937Z,23.05
2018-12-06T06:32:11.193Z,28.30
2018-12-06T06:34:39.533Z,22.40
2018-12-06T06:37:07.786Z,21.50
2018-12-06T06:39:36.029Z,22.80
2018-12-06T06:42:04.297Z,19.30
2018-12-06T06:44:32.852Z,27.00
2018-12-06T06:47:01.162Z,28.37
2018-12-06T06:49:29.423Z,34.37
2018-12-06T06:51:57.726Z,22.00
2018-12-06T06:54:26.053Z,24.87
2018-12-06T06:56:54.312Z,21.23
2018-12-06T06:59:25.995Z,21.40
2018-12-06T07:01:52.925Z,19.20
2018-12-06T07:04:21.177Z,23.35
2018-12-06T07:06:49.441Z,21.87
2018-12-06T07:09:17.686Z,25.93
2018-12-06T07:11:45.949Z,19.93
2018-12-06T07:14:14.193Z,27.63
2018-12-06T07:16:42.613Z,24.40
2018-12-06T07:19:10.869Z,26.77
2018-12-06T07:21:39.133Z,19.17
2018-12-06T07:24:07.378Z,27.20
2018-12-06T07:26:35.804Z,22.67
2018-12-06T07:29:04.181Z,22.70
2018-12-06T07:31:32.456Z,18.87
2018-12-06T07:34:00.708Z,26.73
2018-12-06T07:36:28.953Z,24.60
2018-12-06T07:38:57.307Z,15.77
2018-12-06T07:41:25.536Z,20.10
2018-12-06T07:43:53.815Z,21.10
2018-12-06T07:46:22.052Z,23.53
2018-12-06T07:48:50.297Z,22.00
2018-12-06T07:51:18.625Z,20.80
2018-12-06T07:53:46.869Z,17.27
2018-12-06T07:56:15.118Z,17.50
2018-12-06T07:58:43.381Z,17.17
2018-12-06T08:01:11.646Z,20.40
2018-12-06T08:03:39.894Z,20.47
2018-12-06T08:06:08.153Z,21.23
2018-12-06T08:08:36.406Z,18.70
2018-12-06T08:11:04.724Z,18.30
2018-12-06T08:13:32.994Z,22.40
2018-12-06T08:16:01.261Z,19.20
2018-12-06T08:18:29.508Z,25.83
2018-12-06T08:20:57.770Z,19.17
2018-12-06T08:23:26.008Z,21.20
2018-12-06T08:25:54.269Z,18.33
2018-12-06T08:28:22.520Z,18.20
2018-12-06T08:30:50.783Z,18.27
2018-12-06T08:33:19.025Z,18.40
2018-12-06T08:35:47.285Z,17.80
2018-12-06T08:38:15.537Z,17.37
2018-12-06T08:40:43.807Z,16.50
2018-12-06T08:43:12.048Z,19.00
2018-12-06T08:45:40.321Z,15.00
2018-12-06T08:48:08.573Z,16.80
2018-12-06T08:50:36.853Z,16.53
2018-12-06T08:53:05.101Z,16.50
2018-12-06T08:55:33.372Z,18.87
2018-12-06T08:58:01.636Z,17.17
2018-12-06T09:00:29.880Z,13.97
2018-12-06T09:02:58.448Z,19.92
2018-12-06T09:05:26.701Z,13.87
2018-12-06T09:07:56.128Z,17.30
2018-12-06T09:10:24.737Z,14.57
2018-12-06T09:12:52.986Z,16.47
2018-12-06T09:15:21.233Z,12.73
2018-12-06T09:17:49.492Z,16.70
2018-12-06T09:20:17.757Z,14.47
2018-12-06T09:22:45.998Z,13.10
2018-12-06T09:25:20.861Z,16.47
2018-12-06T09:27:44.597Z,13.97
2018-12-06T09:30:12.965Z,13.28
2018-12-06T09:32:41.485Z,14.13
2018-12-06T09:35:09.765Z,14.43
2018-12-06T09:37:38.023Z,13.17
2018-12-06T09:40:06.458Z,16.10
2018-12-06T09:42:34.846Z,14.10
2018-12-06T09:45:03.240Z,13.30
2018-12-06T09:47:31.489Z,17.07
2018-12-06T09:49:59.744Z,15.03
2018-12-06T09:52:28.005Z,14.40
2018-12-06T09:54:56.286Z,15.90
2018-12-06T09:57:24.537Z,17.03
2018-12-06T09:59:52.804Z,17.00
2018-12-06T10:02:21.045Z,19.13
2018-12-06T10:04:49.309Z,14.13
2018-12-06T10:07:17.572Z,17.60
2018-12-06T10:09:45.835Z,19.80
2018-12-06T10:12:14.153Z,18.90
2018-12-06T10:14:42.418Z,14.87
2018-12-06T10:17:10.673Z,24.80
2018-12-06T10:19:38.915Z,13.70
2018-12-06T10:22:07.179Z,13.50
2018-12-06T10:24:35.443Z,17.30
2018-12-06T10:27:03.705Z,13.83
2018-12-06T10:29:32.048Z,13.43
2018-12-06T10:32:00.289Z,15.90
2018-12-06T10:34:28.558Z,15.28
2018-12-06T10:36:56.811Z,14.93
2018-12-06T10:39:25.062Z,18.27
2018-12-06T10:41:53.428Z,17.27
2018-12-06T10:44:28.705Z,16.53
2018-12-06T10:46:56.965Z,17.43
2018-12-06T10:49:25.210Z,16.70
2018-12-06T10:51:53.617Z,14.40
2018-12-06T10:54:21.997Z,14.97
2018-12-06T10:56:50.316Z,14.90
2018-12-06T10:59:18.589Z,20.20
2018-12-06T11:01:46.895Z,11.93
2018-12-06T11:04:15.256Z,15.07
2018-12-06T11:06:43.505Z,14.20
2018-12-06T11:09:11.760Z,16.30
2018-12-06T11:11:40.022Z,18.23
2018-12-06T11:14:08.337Z,17.20
2018-12-06T11:16:36.586Z,11.97
2018-12-06T11:19:04.846Z,13.18
2018-12-06T11:21:33.089Z,11.47
2018-12-06T11:24:01.340Z,15.63
2018-12-06T11:26:29.613Z,13.87
2018-12-06T11:28:57.864Z,12.82
2018-12-06T11:31:26.116Z,14.93
2018-12-06T11:33:54.368Z,16.70
2018-12-06T11:36:22.613Z,13.70
2018-12-06T11:38:50.940Z,15.03
2018-12-06T11:41:19.242Z,15.80
2018-12-06T11:43:47.492Z,14.53
2018-12-06T11:46:15.750Z,16.50
2018-12-06T11:48:44.010Z,14.07
2018-12-06T11:51:12.257Z,16.00
2018-12-06T11:53:40.525Z,13.83
2018-12-06T11:56:08.765Z,15.07
2018-12-06T11:58:37.014Z,14.80
2018-12-06T12:01:05.339Z,15.10
2018-12-06T12:03:33.593Z,13.10
2018-12-06T12:06:01.934Z,14.37
2018-12-06T12:08:30.180Z,12.50
2018-12-06T12:10:58.433Z,14.10
2018-12-06T12:13:26.686Z,13.77
2018-12-06T12:15:54.925Z,15.30
2018-12-06T12:18:23.208Z,17.47
2018-12-06T12:20:51.456Z,15.90
2018-12-06T12:23:19.817Z,16.37
2018-12-06T12:25:48.124Z,16.33
2018-12-06T12:28:16.400Z,15.97
2018-12-06T12:30:44.645Z,20.20
2018-12-06T12:33:12.900Z,15.83
2018-12-06T12:35:41.332Z,14.13
2018-12-06T12:38:09.646Z,14.60
2018-12-06T12:40:37.897Z,12.70
2018-12-06T12:43:06.169Z,15.90
2018-12-06T12:45:34.415Z,15.20
2018-12-06T12:48:02.684Z,17.40
2018-12-06T12:50:30.982Z,12.83
2018-12-06T12:53:00.090Z,14.15
2018-12-06T12:55:28.353Z,15.77
2018-12-06T12:57:56.605Z,14.23
2018-12-06T13:00:24.854Z,14.97
2018-12-06T13:02:53.143Z,13.27
2018-12-06T13:05:21.385Z,13.87
2018-12-06T13:07:49.628Z,14.80
2018-12-06T13:10:17.890Z,17.10
2018-12-06T13:12:46.247Z,20.27
2018-12-06T13:15:14.489Z,15.70
2018-12-06T13:17:42.746Z,16.73
2018-12-06T13:20:11.135Z,18.05
2018-12-06T13:22:39.372Z,14.33
2018-12-06T13:25:07.746Z,18.00
2018-12-06T13:27:36.009Z,17.60
2018-12-06T13:30:05.670Z,11.97
2018-12-06T13:32:33.938Z,11.20
2018-12-06T13:35:02.185Z,12.60
2018-12-06T13:37:30.424Z,12.70
2018-12-06T13:39:58.685Z,11.60
2018-12-06T13:42:27.054Z,13.57
2018-12-06T13:44:55.301Z,12.50
2018-12-06T13:47:23.570Z,12.80
2018-12-06T13:49:51.897Z,11.20
2018-12-06T13:52:20.206Z,12.97
2018-12-06T13:54:48.476Z,11.93
2018-12-06T13:57:19.520Z,11.30
2018-12-06T13:59:46.979Z,13.93
2018-12-06T14:02:15.240Z,11.80
2018-12-06T14:04:43.478Z,11.80
2018-12-06T14:07:11.738Z,13.50
2018-12-06T14:09:39.991Z,11.90
2018-12-06T14:12:08.241Z,13.87
2018-12-06T14:14:36.504Z,16.23
2018-12-06T14:17:04.753Z,11.67
2018-12-06T14:19:33.023Z,16.37
2018-12-06T14:22:01.284Z,12.50
2018-12-06T14:24:29.651Z,18.47
2018-12-06T14:26:57.893Z,14.10
2018-12-06T14:29:26.172Z,11.70
2018-12-06T14:31:54.514Z,10.30
2018-12-06T14:34:22.745Z,14.57
2018-12-06T14:37:01.545Z,10.53
2018-12-06T14:39:21.265Z,11.40
2018-12-06T14:41:49.577Z,10.17
2018-12-06T14:44:17.857Z,12.50
2018-12-06T14:46:46.114Z,12.93
2018-12-06T14:49:14.378Z,10.93
2018-12-06T14:51:42.633Z,10.07
2018-12-06T14:54:10.881Z,11.73
2018-12-06T14:56:39.136Z,8.87
2018-12-06T14:59:07.411Z,10.00
2018-12-06T15:01:35.665Z,9.43
2018-12-06T15:04:04.029Z,13.67
2018-12-06T15:06:37.506Z,12.40
2018-12-06T15:09:02.738Z,13.43
2018-12-06T15:11:30.995Z,16.10
2018-12-06T15:13:59.319Z,14.07
2018-12-06T15:16:27.566Z,12.37
2018-12-06T15:18:55.877Z,12.30
2018-12-06T15:21:24.119Z,10.40
2018-12-06T15:23:52.380Z,10.13
2018-12-06T15:26:20.682Z,9.17
2018-12-06T15:28:48.930Z,12.23
2018-12-06T15:31:17.193Z,9.27
2018-12-06T15:33:45.449Z,11.83
2018-12-06T15:36:13.712Z,11.53
2018-12-06T15:41:16.553Z,11.03
2018-12-06T15:43:44.824Z,11.53
2018-12-06T15:46:13.082Z,13.03
2018-12-06T15:48:41.320Z,10.17
2018-12-06T15:51:09.617Z,13.47
2018-12-06T15:53:37.882Z,16.60
2018-12-06T15:56:06.148Z,13.97
2018-12-06T15:58:34.454Z,10.90
2018-12-06T16:01:02.802Z,11.43
2018-12-06T16:03:31.058Z,8.58
2018-12-06T16:05:59.304Z,21.83
2018-12-06T16:08:27.629Z,18.17
2018-12-06T16:10:55.881Z,12.20
2018-12-06T16:13:24.154Z,11.50
2018-12-06T16:15:52.498Z,11.40
2018-12-06T16:18:20.754Z,10.60
2018-12-06T16:20:49.073Z,14.67
2018-12-06T16:23:17.322Z,12.90
2018-12-06T16:25:45.714Z,13.47
2018-12-06T16:28:14.018Z,14.43
2018-12-06T16:30:42.261Z,13.07
2018-12-06T16:33:10.517Z,17.40
2018-12-06T16:35:38.777Z,10.53
2018-12-06T16:38:07.142Z,11.67
2018-12-06T16:40:35.482Z,15.03
2018-12-06T16:43:03.902Z,12.53
2018-12-06T16:45:32.219Z,12.80
2018-12-06T16:48:00.507Z,19.00
2018-12-06T16:50:28.746Z,16.80
2018-12-06T16:52:57.037Z,20.47
2018-12-06T16:55:25.308Z,22.65
2018-12-06T16:57:53.566Z,13.37
2018-12-06T17:00:21.878Z,11.90
2018-12-06T17:02:50.218Z,15.67
2018-12-06T17:05:18.534Z,10.50
2018-12-06T17:07:46.843Z,11.53
2018-12-06T17:10:15.158Z,13.00
2018-12-06T17:12:43.500Z,9.23
2018-12-06T17:15:11.799Z,14.53
2018-12-06T17:17:40.111Z,9.97
2018-12-06T17:20:08.608Z,12.05
2018-12-06T17:22:37.040Z,11.30
2018-12-06T17:25:05.965Z,12.70
2018-12-06T17:27:34.310Z,13.10
2018-12-06T17:30:02.698Z,13.20
2018-12-06T17:32:31.299Z,9.53
2018-12-06T17:34:59.614Z,13.37
2018-12-06T17:37:27.891Z,11.23
2018-12-06T17:39:56.219Z,9.80
2018-12-06T17:42:24.551Z,13.50
2018-12-06T17:44:52.825Z,10.50
2018-12-06T17:47:21.108Z,12.60
2018-12-06T17:49:49.369Z,12.97
2018-12-06T17:55:02.152Z,12.33
2018-12-06T17:57:30.397Z,12.87
2018-12-06T17:59:58.709Z,10.70
2018-12-06T18:02:27.016Z,8.10
2018-12-06T18:04:55.330Z,11.57
2018-12-06T18:07:23.658Z,14.00
2018-12-06T18:09:51.932Z,10.50
2018-12-06T18:12:20.220Z,11.40
2018-12-06T18:14:48.493Z,12.45
2018-12-06T18:17:16.761Z,8.63
2018-12-06T18:19:45.050Z,12.10
2018-12-06T18:22:13.317Z,11.27
2018-12-06T18:24:41.572Z,9.75
2018-12-06T18:27:09.882Z,11.93
2018-12-06T18:29:38.139Z,9.40
2018-12-06T18:32:06.438Z,9.63
2018-12-06T18:34:34.693Z,11.03
2018-12-06T18:37:02.940Z,8.40
2018-12-06T18:39:31.246Z,9.90
2018-12-06T18:41:59.495Z,10.20
2018-12-06T18:44:27.797Z,11.37
2018-12-06T18:46:56.185Z,10.07
2018-12-06T18:49:24.439Z,11.70
2018-12-06T18:51:52.731Z,8.00
2018-12-06T18:54:21.213Z,10.93
2018-12-06T18:56:49.521Z,9.30
2018-12-06T18:59:17.882Z,7.95
2018-12-06T19:01:46.337Z,9.20
2018-12-06T19:04:14.763Z,13.27
2018-12-06T19:06:45.075Z,8.50
2018-12-06T19:09:13.442Z,9.27
2018-12-06T19:11:41.756Z,8.17
2018-12-06T19:14:10.048Z,13.13
2018-12-06T19:16:38.385Z,9.03
2018-12-06T19:19:07.061Z,8.33
2018-12-06T19:21:35.387Z,15.07
2018-12-06T19:24:03.778Z,10.90
2018-12-06T19:26:32.310Z,11.17
2018-12-06T19:29:00.750Z,10.43
2018-12-06T19:31:29.241Z,8.07
2018-12-06T19:33:57.874Z,12.07
2018-12-06T19:36:26.884Z,10.90
2018-12-06T19:38:55.809Z,10.33
2018-12-06T19:41:25.573Z,14.60
2018-12-06T19:43:54.916Z,11.60
2018-12-06T19:46:25.064Z,12.97
2018-12-06T19:48:55.307Z,14.80
2018-12-06T19:51:24.893Z,13.00
2018-12-06T19:53:54.684Z,12.10
2018-12-06T19:56:24.934Z,11.77
2018-12-06T19:58:55.059Z,14.33
2018-12-06T20:01:24.875Z,12.00
2018-12-06T20:03:54.950Z,11.70
2018-12-06T20:09:10.960Z,14.00
2018-12-06T20:11:40.809Z,11.53
2018-12-06T20:14:10.854Z,17.03
2018-12-06T20:16:40.503Z,17.60
2018-12-06T20:19:10.150Z,11.18
2018-12-06T20:21:40.087Z,15.10
2018-12-06T20:24:10.195Z,17.60
2018-12-06T20:26:39.984Z,16.73
2018-12-06T20:29:10.106Z,14.77
2018-12-06T20:31:39.802Z,13.07
2018-12-06T20:34:09.837Z,16.13
2018-12-06T20:36:39.855Z,10.90
2018-12-06T20:39:09.770Z,14.57
2018-12-06T20:41:39.889Z,10.77
2018-12-06T20:44:09.635Z,15.00
2018-12-06T20:46:39.520Z,15.90
2018-12-06T20:49:09.174Z,12.93
2018-12-06T20:51:38.981Z,12.00
2018-12-06T20:54:08.955Z,13.47
2018-12-06T20:56:38.866Z,9.40
2018-12-06T20:59:08.520Z,11.57
2018-12-06T21:01:38.435Z,10.07
2018-12-06T21:04:08.314Z,13.30
2018-12-06T21:06:38.414Z,12.03
2018-12-06T21:09:08.332Z,9.70
2018-12-06T21:11:38.085Z,10.07
2018-12-06T21:14:07.155Z,12.50
2018-12-06T21:16:35.926Z,11.93
2018-12-06T21:19:04.817Z,12.10
2018-12-06T21:21:33.503Z,17.67
2018-12-06T21:24:01.882Z,12.30
2018-12-06T21:26:30.274Z,11.37
2018-12-06T21:28:58.794Z,11.37
2018-12-06T21:31:27.328Z,10.43
2018-12-06T21:33:55.766Z,10.03
2018-12-06T21:36:24.062Z,9.60
2018-12-06T21:38:52.362Z,10.40
2018-12-06T21:41:20.741Z,9.60
2018-12-06T21:43:49.006Z,8.77
2018-12-06T21:46:17.316Z,8.83
2018-12-06T21:48:45.632Z,11.27
2018-12-06T21:51:13.981Z,9.83
2018-12-06T21:53:42.278Z,9.60
2018-12-06T21:56:10.609Z,10.87
2018-12-06T21:58:38.878Z,10.00
2018-12-06T22:01:07.215Z,9.93
2018-12-06T22:03:35.473Z,8.37
2018-12-06T22:06:03.822Z,12.10
2018-12-06T22:08:32.105Z,9.80
2018-12-06T22:11:00.474Z,11.67
2018-12-06T22:13:28.755Z,8.57
2018-12-06T22:15:57.031Z,10.43
2018-12-06T22:18:25.310Z,10.93
2018-12-06T22:20:53.592Z,8.67
2018-12-06T22:23:21.881Z,9.80
2018-12-06T22:25:50.125Z,8.83
2018-12-06T22:28:18.425Z,8.73
2018-12-06T22:30:46.793Z,8.07
2018-12-06T22:33:15.073Z,6.87
2018-12-06T22:35:43.397Z,9.60
2018-12-06T22:38:11.732Z,10.27
2018-12-06T22:40:40.001Z,7.87
2018-12-06T22:43:08.278Z,8.10
2018-12-06T22:45:57.205Z,10.57
2018-12-06T22:48:25.524Z,9.20
2018-12-06T22:50:53.902Z,7.83
2018-12-06T22:53:22.237Z,6.90
2018-12-06T22:55:50.561Z,9.57
2018-12-06T22:58:18.813Z,9.80
2018-12-06T23:00:50.785Z,9.60
2018-12-06T23:03:19.102Z,9.40
2018-12-06T23:05:47.345Z,6.07
2018-12-06T23:08:15.728Z,6.33
2018-12-06T23:10:44.008Z,7.90
2018-12-06T23:13:12.377Z,5.20
2018-12-06T23:15:40.661Z,7.57
2018-12-06T23:18:08.915Z,8.13
2018-12-06T23:20:37.178Z,7.27
2018-12-06T23:23:05.548Z,8.53
2018-12-06T23:25:33.873Z,16.13
2018-12-06T23:28:02.116Z,7.00
2018-12-06T23:30:30.564Z,7.17
2018-12-06T23:32:58.914Z,7.10
2018-12-06T23:35:27.277Z,7.47
2018-12-06T23:37:55.550Z,6.60
2018-12-06T23:40:23.822Z,7.60
2018-12-06T23:42:52.109Z,8.77
2018-12-06T23:45:20.365Z,9.17
2018-12-06T23:47:48.670Z,8.70
2018-12-06T23:50:17.034Z,6.63
2018-12-06T23:52:45.289Z,7.20
2018-12-06T23:55:13.606Z,7.60
2018-12-06T23:57:41.884Z,8.50
